sensor_id;sensor_type;location;lat;lon;timestamp;P1;durP1;ratioP1;P2;durP2;ratioP2
817;SDS011;391;51.052;6.954;2022-09-14T00:00:57;5.80;;;5.20;;
817;SDS011;391;51.052;6.954;2022-09-14T00:03:21;8.43;;;7.57;;
817;SDS011;391;51.052;6.954;2022-09-14T00:05:24;6.33;;;5.73;;
817;SDS011;391;51.052;6.954;2022-09-14T00:07:28;7.67;;;6.07;;
817;SDS011;391;51.052;6.954;2022-09-14T00:09:31;9.57;;;8.27;;
817;SDS011;391;51.052;6.954;2022-09-14T00:11:36;8.70;;;7.90;;
817;SDS011;391;51.052;6.954;2022-09-14T00:13:41;7.20;;;6.50;;
817;SDS011;391;51.052;6.954;2022-09-14T00:15:46;8.10;;;7.33;;
817;SDS011;391;51.052;6.954;2022-09-14T00:17:49;7.73;;;6.50;;
817;SDS011;391;51.052;6.954;2022-09-14T00:19:52;7.00;;;6.30;;
817;SDS011;391;51.052;6.954;2022-09-14T00:21:57;7.00;;;6.37;;
817;SDS011;391;51.052;6.954;2022-09-14T00:24:01;8.17;;;7.10;;
817;SDS011;391;51.052;6.954;2022-09-14T00:26:05;10.57;;;9.30;;
817;SDS011;391;51.052;6.954;2022-09-14T00:28:11;10.90;;;9.70;;
817;SDS011;391;51.052;6.954;2022-09-14T00:30:14;10.70;;;9.70;;
817;SDS011;391;51.052;6.954;2022-09-14T00:32:18;9.40;;;8.40;;
817;SDS011;391;51.052;6.954;2022-09-14T00:34:21;10.10;;;9.10;;
817;SDS011;391;51.052;6.954;2022-09-14T00:36:26;8.73;;;7.50;;
817;SDS011;391;51.052;6.954;2022-09-14T00:38:30;10.23;;;8.30;;
817;SDS011;391;51.052;6.954;2022-09-14T00:40:33;6.70;;;6.07;;
817;SDS011;391;51.052;6.954;2022-09-14T00:42:37;11.37;;;10.27;;
817;SDS011;391;51.052;6.954;2022-09-14T00:47:06;11.00;;;9.60;;
817;SDS011;391;51.052;6.954;2022-09-14T00:49:10;10.87;;;9.30;;
817;SDS011;391;51.052;6.954;2022-09-14T00:51:17;10.63;;;9.53;;
817;SDS011;391;51.052;6.954;2022-09-14T00:53:23;13.70;;;12.30;;
817;SDS011;391;51.052;6.954;2022-09-14T00:55:27;9.27;;;8.37;;
817;SDS011;391;51.052;6.954;2022-09-14T00:57:33;8.50;;;7.70;;
817;SDS011;391;51.052;6.954;2022-09-14T00:59:39;12.27;;;11.07;;
817;SDS011;391;51.052;6.954;2022-09-14T01:01:45;12.53;;;11.00;;
817;SDS011;391;51.052;6.954;2022-09-14T01:03:50;12.47;;;11.27;;
817;SDS011;391;51.052;6.954;2022-09-14T01:05:58;10.27;;;9.37;;
817;SDS011;391;51.052;6.954;2022-09-14T01:08:09;11.53;;;10.57;;
817;SDS011;391;51.052;6.954;2022-09-14T01:10:37;14.20;;;12.70;;
817;SDS011;391;51.052;6.954;2022-09-14T01:12:49;12.10;;;10.83;;
817;SDS011;391;51.052;6.954;2022-09-14T01:15:02;12.60;;;11.47;;
817;SDS011;391;51.052;6.954;2022-09-14T01:17:15;14.03;;;12.43;;
817;SDS011;391;51.052;6.954;2022-09-14T01:19:26;16.73;;;13.10;;
817;SDS011;391;51.052;6.954;2022-09-14T01:21:40;15.13;;;13.53;;
817;SDS011;391;51.052;6.954;2022-09-14T01:23:46;14.60;;;13.10;;
817;SDS011;391;51.052;6.954;2022-09-14T01:28:42;16.20;;;13.23;;
817;SDS011;391;51.052;6.954;2022-09-14T01:30:52;11.87;;;10.23;;
817;SDS011;391;51.052;6.954;2022-09-14T01:33:00;11.93;;;10.67;;
817;SDS011;391;51.052;6.954;2022-09-14T01:35:09;9.70;;;8.80;;
817;SDS011;391;51.052;6.954;2022-09-14T01:37:19;12.87;;;10.70;;
817;SDS011;391;51.052;6.954;2022-09-14T01:39:27;11.53;;;9.50;;
817;SDS011;391;51.052;6.954;2022-09-14T01:41:33;12.87;;;11.67;;
817;SDS011;391;51.052;6.954;2022-09-14T01:43:39;15.60;;;12.77;;
817;SDS011;391;51.052;6.954;2022-09-14T01:45:47;11.83;;;10.67;;
817;SDS011;391;51.052;6.954;2022-09-14T01:47:53;14.13;;;12.63;;
817;SDS011;391;51.052;6.954;2022-09-14T01:50:01;13.50;;;12.20;;
817;SDS011;391;51.052;6.954;2022-09-14T01:52:09;16.13;;;14.20;;
817;SDS011;391;51.052;6.954;2022-09-14T01:54:17;15.90;;;11.83;;
817;SDS011;391;51.052;6.954;2022-09-14T01:56:25;14.47;;;13.07;;
817;SDS011;391;51.052;6.954;2022-09-14T01:58:34;15.67;;;14.13;;
817;SDS011;391;51.052;6.954;2022-09-14T02:00:42;17.57;;;15.87;;
817;SDS011;391;51.052;6.954;2022-09-14T02:02:50;18.73;;;16.83;;
817;SDS011;391;51.052;6.954;2022-09-14T02:04:57;20.60;;;18.47;;
817;SDS011;391;51.052;6.954;2022-09-14T02:07:08;17.63;;;15.83;;
817;SDS011;391;51.052;6.954;2022-09-14T02:09:14;20.43;;;18.40;;
817;SDS011;391;51.052;6.954;2022-09-14T02:11:20;15.77;;;14.17;;
817;SDS011;391;51.052;6.954;2022-09-14T02:13:23;18.83;;;16.60;;
817;SDS011;391;51.052;6.954;2022-09-14T02:15:28;20.20;;;17.40;;
817;SDS011;391;51.052;6.954;2022-09-14T02:17:32;18.67;;;16.77;;
817;SDS011;391;51.052;6.954;2022-09-14T02:19:39;20.97;;;18.87;;
817;SDS011;391;51.052;6.954;2022-09-14T02:21:45;19.07;;;16.90;;
817;SDS011;391;51.052;6.954;2022-09-14T02:23:48;17.83;;;15.80;;
817;SDS011;391;51.052;6.954;2022-09-14T02:25:52;19.03;;;16.63;;
817;SDS011;391;51.052;6.954;2022-09-14T02:27:55;20.30;;;17.57;;
817;SDS011;391;51.052;6.954;2022-09-14T02:29:59;19.13;;;17.13;;
817;SDS011;391;51.052;6.954;2022-09-14T02:32:09;16.50;;;14.80;;
817;SDS011;391;51.052;6.954;2022-09-14T02:34:25;17.73;;;15.37;;
817;SDS011;391;51.052;6.954;2022-09-14T02:36:44;13.20;;;11.83;;
817;SDS011;391;51.052;6.954;2022-09-14T02:38:51;15.70;;;14.10;;
817;SDS011;391;51.052;6.954;2022-09-14T02:41:02;18.73;;;16.80;;
817;SDS011;391;51.052;6.954;2022-09-14T02:43:16;15.70;;;14.20;;
817;SDS011;391;51.052;6.954;2022-09-14T02:45:27;13.70;;;12.30;;
817;SDS011;391;51.052;6.954;2022-09-14T02:47:39;13.77;;;12.40;;
817;SDS011;391;51.052;6.954;2022-09-14T02:49:50;14.10;;;12.60;;
817;SDS011;391;51.052;6.954;2022-09-14T02:52:01;12.03;;;10.80;;
817;SDS011;391;51.052;6.954;2022-09-14T02:54:10;11.57;;;10.37;;
817;SDS011;391;51.052;6.954;2022-09-14T02:56:17;9.50;;;8.70;;
817;SDS011;391;51.052;6.954;2022-09-14T02:58:21;13.90;;;12.43;;
817;SDS011;391;51.052;6.954;2022-09-14T03:00:25;9.83;;;8.93;;
817;SDS011;391;51.052;6.954;2022-09-14T03:02:28;10.17;;;9.37;;
817;SDS011;391;51.052;6.954;2022-09-14T03:04:32;15.37;;;13.27;;
817;SDS011;391;51.052;6.954;2022-09-14T03:06:35;15.43;;;14.10;;
817;SDS011;391;51.052;6.954;2022-09-14T03:08:40;11.93;;;10.73;;
817;SDS011;391;51.052;6.954;2022-09-14T03:10:43;11.30;;;9.37;;
817;SDS011;391;51.052;6.954;2022-09-14T03:12:47;13.40;;;12.30;;
817;SDS011;391;51.052;6.954;2022-09-14T03:14:50;10.80;;;9.70;;
817;SDS011;391;51.052;6.954;2022-09-14T03:16:53;10.63;;;9.53;;
817;SDS011;391;51.052;6.954;2022-09-14T03:18:57;10.00;;;8.80;;
817;SDS011;391;51.052;6.954;2022-09-14T03:21:01;8.93;;;8.17;;
817;SDS011;391;51.052;6.954;2022-09-14T03:23:05;8.03;;;7.37;;
817;SDS011;391;51.052;6.954;2022-09-14T03:25:11;9.80;;;8.87;;
817;SDS011;391;51.052;6.954;2022-09-14T03:27:15;10.80;;;9.40;;
817;SDS011;391;51.052;6.954;2022-09-14T03:29:18;10.87;;;9.80;;
817;SDS011;391;51.052;6.954;2022-09-14T03:31:21;11.87;;;8.53;;
817;SDS011;391;51.052;6.954;2022-09-14T03:33:26;10.20;;;9.27;;
817;SDS011;391;51.052;6.954;2022-09-14T03:35:29;15.40;;;13.43;;
817;SDS011;391;51.052;6.954;2022-09-14T03:37:35;10.83;;;9.83;;
817;SDS011;391;51.052;6.954;2022-09-14T03:39:38;12.57;;;11.47;;
817;SDS011;391;51.052;6.954;2022-09-14T03:41:43;10.10;;;9.10;;
817;SDS011;391;51.052;6.954;2022-09-14T03:43:47;12.87;;;11.47;;
817;SDS011;391;51.052;6.954;2022-09-14T03:45:51;11.77;;;10.67;;
817;SDS011;391;51.052;6.954;2022-09-14T03:47:54;12.20;;;11.00;;
817;SDS011;391;51.052;6.954;2022-09-14T03:49:57;13.47;;;12.03;;
817;SDS011;391;51.052;6.954;2022-09-14T03:52:01;10.87;;;9.87;;
817;SDS011;391;51.052;6.954;2022-09-14T03:54:05;10.27;;;9.27;;
817;SDS011;391;51.052;6.954;2022-09-14T03:56:10;9.40;;;8.60;;
817;SDS011;391;51.052;6.954;2022-09-14T03:58:15;8.53;;;7.73;;
817;SDS011;391;51.052;6.954;2022-09-14T04:00:18;6.40;;;5.90;;
817;SDS011;391;51.052;6.954;2022-09-14T04:02:22;6.00;;;5.50;;
817;SDS011;391;51.052;6.954;2022-09-14T04:04:25;6.47;;;5.87;;
817;SDS011;391;51.052;6.954;2022-09-14T04:06:29;7.57;;;6.87;;
817;SDS011;391;51.052;6.954;2022-09-14T04:08:35;6.87;;;6.27;;
817;SDS011;391;51.052;6.954;2022-09-14T04:10:40;7.63;;;7.00;;
817;SDS011;391;51.052;6.954;2022-09-14T04:12:43;6.43;;;5.73;;
817;SDS011;391;51.052;6.954;2022-09-14T04:14:48;7.63;;;7.03;;
817;SDS011;391;51.052;6.954;2022-09-14T04:16:56;6.33;;;5.50;;
817;SDS011;391;51.052;6.954;2022-09-14T04:19:04;4.90;;;4.53;;
817;SDS011;391;51.052;6.954;2022-09-14T04:21:09;6.70;;;6.10;;
817;SDS011;391;51.052;6.954;2022-09-14T04:23:15;5.83;;;5.10;;
817;SDS011;391;51.052;6.954;2022-09-14T04:25:19;6.03;;;5.53;;
817;SDS011;391;51.052;6.954;2022-09-14T04:27:23;6.33;;;5.73;;
817;SDS011;391;51.052;6.954;2022-09-14T04:29:27;5.03;;;4.50;;
817;SDS011;391;51.052;6.954;2022-09-14T04:31:33;6.77;;;6.07;;
817;SDS011;391;51.052;6.954;2022-09-14T04:33:37;7.10;;;6.50;;
817;SDS011;391;51.052;6.954;2022-09-14T04:35:41;5.60;;;5.07;;
817;SDS011;391;51.052;6.954;2022-09-14T04:37:44;4.43;;;3.97;;
817;SDS011;391;51.052;6.954;2022-09-14T04:39:48;5.13;;;4.73;;
817;SDS011;391;51.052;6.954;2022-09-14T04:41:51;7.07;;;6.37;;
817;SDS011;391;51.052;6.954;2022-09-14T04:43:55;6.17;;;5.67;;
817;SDS011;391;51.052;6.954;2022-09-14T04:46:00;6.93;;;6.33;;
817;SDS011;391;51.052;6.954;2022-09-14T04:48:06;6.60;;;5.53;;
817;SDS011;391;51.052;6.954;2022-09-14T04:50:09;5.17;;;4.67;;
817;SDS011;391;51.052;6.954;2022-09-14T04:52:13;13.50;;;4.93;;
817;SDS011;391;51.052;6.954;2022-09-14T04:54:16;6.80;;;6.13;;
817;SDS011;391;51.052;6.954;2022-09-14T04:56:20;7.10;;;6.50;;
817;SDS011;391;51.052;6.954;2022-09-14T04:58:25;6.13;;;5.60;;
817;SDS011;391;51.052;6.954;2022-09-14T05:00:29;6.67;;;6.03;;
817;SDS011;391;51.052;6.954;2022-09-14T05:02:38;5.70;;;5.20;;
817;SDS011;391;51.052;6.954;2022-09-14T05:04:44;6.23;;;4.80;;
817;SDS011;391;51.052;6.954;2022-09-14T05:06:47;5.77;;;5.13;;
817;SDS011;391;51.052;6.954;2022-09-14T05:08:52;6.93;;;6.33;;
817;SDS011;391;51.052;6.954;2022-09-14T05:10:56;6.80;;;6.10;;
817;SDS011;391;51.052;6.954;2022-09-14T05:13:00;6.80;;;6.20;;
817;SDS011;391;51.052;6.954;2022-09-14T05:15:04;9.17;;;8.27;;
817;SDS011;391;51.052;6.954;2022-09-14T05:17:08;7.67;;;6.87;;
817;SDS011;391;51.052;6.954;2022-09-14T05:19:12;5.90;;;5.40;;
817;SDS011;391;51.052;6.954;2022-09-14T05:21:19;5.73;;;5.23;;
817;SDS011;391;51.052;6.954;2022-09-14T05:23:24;8.30;;;7.40;;
817;SDS011;391;51.052;6.954;2022-09-14T05:25:27;6.57;;;5.97;;
817;SDS011;391;51.052;6.954;2022-09-14T05:27:30;8.93;;;8.07;;
817;SDS011;391;51.052;6.954;2022-09-14T05:29:34;7.13;;;6.43;;
817;SDS011;391;51.052;6.954;2022-09-14T05:31:40;7.00;;;6.40;;
817;SDS011;391;51.052;6.954;2022-09-14T05:33:44;7.40;;;6.80;;
817;SDS011;391;51.052;6.954;2022-09-14T05:35:48;7.47;;;6.73;;
817;SDS011;391;51.052;6.954;2022-09-14T05:37:54;7.93;;;7.13;;
817;SDS011;391;51.052;6.954;2022-09-14T05:39:57;8.77;;;7.97;;
817;SDS011;391;51.052;6.954;2022-09-14T05:42:00;10.10;;;8.10;;
817;SDS011;391;51.052;6.954;2022-09-14T05:44:04;8.33;;;7.60;;
817;SDS011;391;51.052;6.954;2022-09-14T05:46:08;8.20;;;7.40;;
817;SDS011;391;51.052;6.954;2022-09-14T05:48:13;6.70;;;6.10;;
817;SDS011;391;51.052;6.954;2022-09-14T05:50:17;8.83;;;7.93;;
817;SDS011;391;51.052;6.954;2022-09-14T05:52:20;9.27;;;8.27;;
817;SDS011;391;51.052;6.954;2022-09-14T05:54:25;9.77;;;8.83;;
817;SDS011;391;51.052;6.954;2022-09-14T05:56:29;8.70;;;7.90;;
817;SDS011;391;51.052;6.954;2022-09-14T05:58:33;8.70;;;7.23;;
817;SDS011;391;51.052;6.954;2022-09-14T06:00:37;7.60;;;6.83;;
817;SDS011;391;51.052;6.954;2022-09-14T06:02:44;6.63;;;6.07;;
817;SDS011;391;51.052;6.954;2022-09-14T06:04:48;7.20;;;6.60;;
817;SDS011;391;51.052;6.954;2022-09-14T06:06:51;6.70;;;6.20;;
817;SDS011;391;51.052;6.954;2022-09-14T06:09:15;6.00;;;5.50;;
817;SDS011;391;51.052;6.954;2022-09-14T06:11:20;6.80;;;6.20;;
817;SDS011;391;51.052;6.954;2022-09-14T06:13:25;7.60;;;6.90;;
817;SDS011;391;51.052;6.954;2022-09-14T06:15:28;9.00;;;8.20;;
817;SDS011;391;51.052;6.954;2022-09-14T06:17:31;7.87;;;6.60;;
817;SDS011;391;51.052;6.954;2022-09-14T06:19:35;7.17;;;6.10;;
817;SDS011;391;51.052;6.954;2022-09-14T06:21:38;7.23;;;6.60;;
817;SDS011;391;51.052;6.954;2022-09-14T06:23:41;8.43;;;7.43;;
817;SDS011;391;51.052;6.954;2022-09-14T06:25:45;7.17;;;6.40;;
817;SDS011;391;51.052;6.954;2022-09-14T06:27:53;7.10;;;6.50;;
817;SDS011;391;51.052;6.954;2022-09-14T06:29:57;6.80;;;6.20;;
817;SDS011;391;51.052;6.954;2022-09-14T06:32:00;6.40;;;5.80;;
817;SDS011;391;51.052;6.954;2022-09-14T06:34:03;6.37;;;5.77;;
817;SDS011;391;51.052;6.954;2022-09-14T06:36:08;7.97;;;6.67;;
817;SDS011;391;51.052;6.954;2022-09-14T06:38:13;6.70;;;4.80;;
817;SDS011;391;51.052;6.954;2022-09-14T06:40:17;5.70;;;5.20;;
817;SDS011;391;51.052;6.954;2022-09-14T06:42:20;6.03;;;5.53;;
817;SDS011;391;51.052;6.954;2022-09-14T06:44:27;6.27;;;5.73;;
817;SDS011;391;51.052;6.954;2022-09-14T06:46:31;5.00;;;4.60;;
817;SDS011;391;51.052;6.954;2022-09-14T06:48:36;6.03;;;5.40;;
817;SDS011;391;51.052;6.954;2022-09-14T06:50:41;6.80;;;6.30;;
817;SDS011;391;51.052;6.954;2022-09-14T06:52:44;6.80;;;5.87;;
817;SDS011;391;51.052;6.954;2022-09-14T06:54:47;7.00;;;5.77;;
817;SDS011;391;51.052;6.954;2022-09-14T06:56:51;6.30;;;5.70;;
817;SDS011;391;51.052;6.954;2022-09-14T06:58:55;5.60;;;4.93;;
817;SDS011;391;51.052;6.954;2022-09-14T07:01:01;5.83;;;4.97;;
817;SDS011;391;51.052;6.954;2022-09-14T07:03:05;6.87;;;5.77;;
817;SDS011;391;51.052;6.954;2022-09-14T07:05:09;7.00;;;6.50;;
817;SDS011;391;51.052;6.954;2022-09-14T07:07:13;5.23;;;4.83;;
817;SDS011;391;51.052;6.954;2022-09-14T07:09:17;6.60;;;5.97;;
817;SDS011;391;51.052;6.954;2022-09-14T07:11:22;7.03;;;6.03;;
817;SDS011;391;51.052;6.954;2022-09-14T07:13:27;5.67;;;5.00;;
817;SDS011;391;51.052;6.954;2022-09-14T07:15:31;6.33;;;5.37;;
817;SDS011;391;51.052;6.954;2022-09-14T07:17:36;7.90;;;7.10;;
817;SDS011;391;51.052;6.954;2022-09-14T07:19:39;7.83;;;6.80;;
817;SDS011;391;51.052;6.954;2022-09-14T07:21:44;8.53;;;6.60;;
817;SDS011;391;51.052;6.954;2022-09-14T07:23:48;5.67;;;5.17;;
817;SDS011;391;51.052;6.954;2022-09-14T07:25:58;7.70;;;7.00;;
817;SDS011;391;51.052;6.954;2022-09-14T07:28:02;6.10;;;5.50;;
817;SDS011;391;51.052;6.954;2022-09-14T07:30:06;7.47;;;6.87;;
817;SDS011;391;51.052;6.954;2022-09-14T07:32:10;6.60;;;6.00;;
817;SDS011;391;51.052;6.954;2022-09-14T07:34:15;5.87;;;5.30;;
817;SDS011;391;51.052;6.954;2022-09-14T07:36:19;5.43;;;4.90;;
817;SDS011;391;51.052;6.954;2022-09-14T07:38:23;6.17;;;5.67;;
817;SDS011;391;51.052;6.954;2022-09-14T07:40:47;5.87;;;5.37;;
817;SDS011;391;51.052;6.954;2022-09-14T07:42:50;6.40;;;5.90;;
817;SDS011;391;51.052;6.954;2022-09-14T07:44:58;6.20;;;4.10;;
817;SDS011;391;51.052;6.954;2022-09-14T07:47:02;4.33;;;4.00;;
817;SDS011;391;51.052;6.954;2022-09-14T07:49:06;5.10;;;4.70;;
817;SDS011;391;51.052;6.954;2022-09-14T07:51:11;5.83;;;5.23;;
817;SDS011;391;51.052;6.954;2022-09-14T07:53:15;4.60;;;4.20;;
817;SDS011;391;51.052;6.954;2022-09-14T07:55:18;5.13;;;4.30;;
817;SDS011;391;51.052;6.954;2022-09-14T07:57:22;4.93;;;4.63;;
817;SDS011;391;51.052;6.954;2022-09-14T07:59:45;5.70;;;5.20;;
817;SDS011;391;51.052;6.954;2022-09-14T08:01:48;5.20;;;4.30;;
817;SDS011;391;51.052;6.954;2022-09-14T08:03:52;5.23;;;4.67;;
817;SDS011;391;51.052;6.954;2022-09-14T08:05:58;6.67;;;5.27;;
817;SDS011;391;51.052;6.954;2022-09-14T08:08:04;4.80;;;4.40;;
817;SDS011;391;51.052;6.954;2022-09-14T08:10:07;5.00;;;4.60;;
817;SDS011;391;51.052;6.954;2022-09-14T08:12:11;5.20;;;4.77;;
817;SDS011;391;51.052;6.954;2022-09-14T08:14:16;5.93;;;5.43;;
817;SDS011;391;51.052;6.954;2022-09-14T08:16:20;5.80;;;5.20;;
817;SDS011;391;51.052;6.954;2022-09-14T08:18:24;5.30;;;4.90;;
817;SDS011;391;51.052;6.954;2022-09-14T08:20:27;4.00;;;3.70;;
817;SDS011;391;51.052;6.954;2022-09-14T08:22:31;5.83;;;4.00;;
817;SDS011;391;51.052;6.954;2022-09-14T08:24:35;4.10;;;3.80;;
817;SDS011;391;51.052;6.954;2022-09-14T08:26:39;3.50;;;3.20;;
817;SDS011;391;51.052;6.954;2022-09-14T08:28:42;3.80;;;3.50;;
817;SDS011;391;51.052;6.954;2022-09-14T08:30:46;5.57;;;3.60;;
817;SDS011;391;51.052;6.954;2022-09-14T08:32:49;4.30;;;3.43;;
817;SDS011;391;51.052;6.954;2022-09-14T08:34:53;5.60;;;5.10;;
817;SDS011;391;51.052;6.954;2022-09-14T08:36:56;3.23;;;3.03;;
817;SDS011;391;51.052;6.954;2022-09-14T08:39:00;4.37;;;3.50;;
817;SDS011;391;51.052;6.954;2022-09-14T08:41:08;4.10;;;3.80;;
817;SDS011;391;51.052;6.954;2022-09-14T08:43:13;4.00;;;3.40;;
817;SDS011;391;51.052;6.954;2022-09-14T08:45:17;3.87;;;3.47;;
817;SDS011;391;51.052;6.954;2022-09-14T08:47:22;5.07;;;4.47;;
817;SDS011;391;51.052;6.954;2022-09-14T08:49:34;6.17;;;4.73;;
817;SDS011;391;51.052;6.954;2022-09-14T08:51:50;3.73;;;3.40;;
817;SDS011;391;51.052;6.954;2022-09-14T08:53:54;4.60;;;4.20;;
817;SDS011;391;51.052;6.954;2022-09-14T08:56:01;3.80;;;3.50;;
817;SDS011;391;51.052;6.954;2022-09-14T08:58:17;4.90;;;4.10;;
817;SDS011;391;51.052;6.954;2022-09-14T09:00:30;4.23;;;3.80;;
817;SDS011;391;51.052;6.954;2022-09-14T09:05:24;4.80;;;4.30;;
817;SDS011;391;51.052;6.954;2022-09-14T09:07:35;6.23;;;4.93;;
817;SDS011;391;51.052;6.954;2022-09-14T09:09:47;8.40;;;7.70;;
817;SDS011;391;51.052;6.954;2022-09-14T09:11:52;4.77;;;4.30;;
817;SDS011;391;51.052;6.954;2022-09-14T09:13:58;5.00;;;4.10;;
817;SDS011;391;51.052;6.954;2022-09-14T09:16:06;5.23;;;4.17;;
817;SDS011;391;51.052;6.954;2022-09-14T09:18:12;4.57;;;4.17;;
817;SDS011;391;51.052;6.954;2022-09-14T09:20:22;3.53;;;3.23;;
817;SDS011;391;51.052;6.954;2022-09-14T09:22:29;3.83;;;3.53;;
817;SDS011;391;51.052;6.954;2022-09-14T09:24:38;3.60;;;3.30;;
817;SDS011;391;51.052;6.954;2022-09-14T09:26:43;3.60;;;3.13;;
817;SDS011;391;51.052;6.954;2022-09-14T09:28:47;3.83;;;3.53;;
817;SDS011;391;51.052;6.954;2022-09-14T09:30:56;4.00;;;3.63;;
817;SDS011;391;51.052;6.954;2022-09-14T09:33:18;3.90;;;3.50;;
817;SDS011;391;51.052;6.954;2022-09-14T09:35:49;3.93;;;3.50;;
817;SDS011;391;51.052;6.954;2022-09-14T09:37:58;4.67;;;4.37;;
817;SDS011;391;51.052;6.954;2022-09-14T09:40:02;4.80;;;4.40;;
817;SDS011;391;51.052;6.954;2022-09-14T09:42:19;3.53;;;3.33;;
817;SDS011;391;51.052;6.954;2022-09-14T09:44:24;5.23;;;3.40;;
817;SDS011;391;51.052;6.954;2022-09-14T09:46:30;3.33;;;3.10;;
817;SDS011;391;51.052;6.954;2022-09-14T09:48:38;3.97;;;3.67;;
817;SDS011;391;51.052;6.954;2022-09-14T09:50:48;4.13;;;3.73;;
817;SDS011;391;51.052;6.954;2022-09-14T09:52:53;4.30;;;3.90;;
817;SDS011;391;51.052;6.954;2022-09-14T09:55:04;4.33;;;3.93;;
817;SDS011;391;51.052;6.954;2022-09-14T09:57:17;3.83;;;3.53;;
817;SDS011;391;51.052;6.954;2022-09-14T09:59:28;3.50;;;3.20;;
817;SDS011;391;51.052;6.954;2022-09-14T10:01:37;4.30;;;4.00;;
817;SDS011;391;51.052;6.954;2022-09-14T10:03:41;6.43;;;4.83;;
817;SDS011;391;51.052;6.954;2022-09-14T10:05:44;4.77;;;4.37;;
817;SDS011;391;51.052;6.954;2022-09-14T10:07:52;3.87;;;3.60;;
817;SDS011;391;51.052;6.954;2022-09-14T10:09:58;4.17;;;3.87;;
817;SDS011;391;51.052;6.954;2022-09-14T10:12:03;6.50;;;5.57;;
817;SDS011;391;51.052;6.954;2022-09-14T10:14:17;4.93;;;3.87;;
817;SDS011;391;51.052;6.954;2022-09-14T10:16:25;5.03;;;3.97;;
817;SDS011;391;51.052;6.954;2022-09-14T10:18:35;5.60;;;5.10;;
817;SDS011;391;51.052;6.954;2022-09-14T10:23:21;3.60;;;3.23;;
817;SDS011;391;51.052;6.954;2022-09-14T10:25:27;3.40;;;3.13;;
817;SDS011;391;51.052;6.954;2022-09-14T10:27:31;3.83;;;3.53;;
817;SDS011;391;51.052;6.954;2022-09-14T10:29:40;3.37;;;3.07;;
817;SDS011;391;51.052;6.954;2022-09-14T10:31:44;5.10;;;3.70;;
817;SDS011;391;51.052;6.954;2022-09-14T10:33:52;4.60;;;3.87;;
817;SDS011;391;51.052;6.954;2022-09-14T10:35:59;4.23;;;3.93;;
817;SDS011;391;51.052;6.954;2022-09-14T10:38:13;5.07;;;4.07;;
817;SDS011;391;51.052;6.954;2022-09-14T10:40:32;6.50;;;3.70;;
817;SDS011;391;51.052;6.954;2022-09-14T10:42:39;4.03;;;3.73;;
817;SDS011;391;51.052;6.954;2022-09-14T10:44:59;4.40;;;3.90;;
817;SDS011;391;51.052;6.954;2022-09-14T10:47:20;4.20;;;3.80;;
817;SDS011;391;51.052;6.954;2022-09-14T10:49:48;4.23;;;3.77;;
817;SDS011;391;51.052;6.954;2022-09-14T10:52:02;3.03;;;2.83;;
817;SDS011;391;51.052;6.954;2022-09-14T10:54:18;3.80;;;3.43;;
817;SDS011;391;51.052;6.954;2022-09-14T10:56:44;4.10;;;3.80;;
817;SDS011;391;51.052;6.954;2022-09-14T10:59:01;4.17;;;3.87;;
817;SDS011;391;51.052;6.954;2022-09-14T11:01:20;3.17;;;2.87;;
817;SDS011;391;51.052;6.954;2022-09-14T11:03:39;3.70;;;3.43;;
817;SDS011;391;51.052;6.954;2022-09-14T11:05:58;3.40;;;3.20;;
817;SDS011;391;51.052;6.954;2022-09-14T11:08:11;3.67;;;3.37;;
817;SDS011;391;51.052;6.954;2022-09-14T11:10:24;3.23;;;2.73;;
817;SDS011;391;51.052;6.954;2022-09-14T11:12:33;3.27;;;3.07;;
817;SDS011;391;51.052;6.954;2022-09-14T11:14:45;4.10;;;3.40;;
817;SDS011;391;51.052;6.954;2022-09-14T11:17:03;2.80;;;2.50;;
817;SDS011;391;51.052;6.954;2022-09-14T11:19:15;5.17;;;3.00;;
817;SDS011;391;51.052;6.954;2022-09-14T11:21:30;2.90;;;2.60;;
817;SDS011;391;51.052;6.954;2022-09-14T11:23:45;3.23;;;2.93;;
817;SDS011;391;51.052;6.954;2022-09-14T11:25:53;4.17;;;3.57;;
817;SDS011;391;51.052;6.954;2022-09-14T11:28:02;4.13;;;3.73;;
817;SDS011;391;51.052;6.954;2022-09-14T11:30:13;4.03;;;3.40;;
817;SDS011;391;51.052;6.954;2022-09-14T11:32:20;3.53;;;3.23;;
817;SDS011;391;51.052;6.954;2022-09-14T11:34:28;3.43;;;3.20;;
817;SDS011;391;51.052;6.954;2022-09-14T11:36:38;3.97;;;3.67;;
817;SDS011;391;51.052;6.954;2022-09-14T11:38:46;3.40;;;3.10;;
817;SDS011;391;51.052;6.954;2022-09-14T11:40:54;3.20;;;3.00;;
817;SDS011;391;51.052;6.954;2022-09-14T11:43:02;4.33;;;3.87;;
817;SDS011;391;51.052;6.954;2022-09-14T11:45:13;3.70;;;3.40;;
817;SDS011;391;51.052;6.954;2022-09-14T11:47:22;3.90;;;3.10;;
817;SDS011;391;51.052;6.954;2022-09-14T11:49:29;3.63;;;3.33;;
817;SDS011;391;51.052;6.954;2022-09-14T11:51:45;3.70;;;3.37;;
817;SDS011;391;51.052;6.954;2022-09-14T11:53:51;3.10;;;2.80;;
817;SDS011;391;51.052;6.954;2022-09-14T11:55:54;3.73;;;3.43;;
817;SDS011;391;51.052;6.954;2022-09-14T11:57:58;3.30;;;3.07;;
817;SDS011;391;51.052;6.954;2022-09-14T12:00:03;4.23;;;3.83;;
817;SDS011;391;51.052;6.954;2022-09-14T12:10:15;5.20;;;3.37;;
817;SDS011;391;51.052;6.954;2022-09-14T12:14:45;4.27;;;3.53;;
817;SDS011;391;51.052;6.954;2022-09-14T12:17:03;3.47;;;3.17;;
817;SDS011;391;51.052;6.954;2022-09-14T12:19:28;3.40;;;3.10;;
817;SDS011;391;51.052;6.954;2022-09-14T12:21:32;6.00;;;4.90;;
817;SDS011;391;51.052;6.954;2022-09-14T12:23:44;3.43;;;3.13;;
817;SDS011;391;51.052;6.954;2022-09-14T12:26:05;2.23;;;2.03;;
817;SDS011;391;51.052;6.954;2022-09-14T12:28:39;3.17;;;2.90;;
817;SDS011;391;51.052;6.954;2022-09-14T12:31:05;2.93;;;2.73;;
817;SDS011;391;51.052;6.954;2022-09-14T12:35:44;4.57;;;4.20;;
817;SDS011;391;51.052;6.954;2022-09-14T12:37:48;4.33;;;3.40;;
817;SDS011;391;51.052;6.954;2022-09-14T12:42:37;4.30;;;4.00;;
817;SDS011;391;51.052;6.954;2022-09-14T12:44:41;4.70;;;4.30;;
817;SDS011;391;51.052;6.954;2022-09-14T12:46:45;4.63;;;3.77;;
817;SDS011;391;51.052;6.954;2022-09-14T12:48:55;3.50;;;3.27;;
817;SDS011;391;51.052;6.954;2022-09-14T12:51:03;6.60;;;4.03;;
817;SDS011;391;51.052;6.954;2022-09-14T12:55:45;3.87;;;3.57;;
817;SDS011;391;51.052;6.954;2022-09-14T12:57:58;3.63;;;2.80;;
817;SDS011;391;51.052;6.954;2022-09-14T13:00:10;3.07;;;2.77;;
817;SDS011;391;51.052;6.954;2022-09-14T13:04:50;3.33;;;3.03;;
817;SDS011;391;51.052;6.954;2022-09-14T13:06:56;3.20;;;2.93;;
817;SDS011;391;51.052;6.954;2022-09-14T13:09:02;4.20;;;3.57;;
817;SDS011;391;51.052;6.954;2022-09-14T13:11:18;3.50;;;3.17;;
817;SDS011;391;51.052;6.954;2022-09-14T13:13:24;3.20;;;3.00;;
817;SDS011;391;51.052;6.954;2022-09-14T13:15:32;3.97;;;3.67;;
817;SDS011;391;51.052;6.954;2022-09-14T13:17:42;3.17;;;2.87;;
817;SDS011;391;51.052;6.954;2022-09-14T13:19:59;2.20;;;2.00;;
817;SDS011;391;51.052;6.954;2022-09-14T13:22:17;2.00;;;1.73;;
817;SDS011;391;51.052;6.954;2022-09-14T13:24:23;2.17;;;1.97;;
817;SDS011;391;51.052;6.954;2022-09-14T13:26:30;1.90;;;1.80;;
817;SDS011;391;51.052;6.954;2022-09-14T13:28:35;2.30;;;2.10;;
817;SDS011;391;51.052;6.954;2022-09-14T13:30:38;7.43;;;2.20;;
817;SDS011;391;51.052;6.954;2022-09-14T13:32:45;2.23;;;2.03;;
817;SDS011;391;51.052;6.954;2022-09-14T13:34:52;3.10;;;2.40;;
817;SDS011;391;51.052;6.954;2022-09-14T13:36:57;2.93;;;2.63;;
817;SDS011;391;51.052;6.954;2022-09-14T13:39:01;3.13;;;2.53;;
817;SDS011;391;51.052;6.954;2022-09-14T13:41:07;1.93;;;1.73;;
817;SDS011;391;51.052;6.954;2022-09-14T13:43:15;2.23;;;2.03;;
817;SDS011;391;51.052;6.954;2022-09-14T13:45:19;3.20;;;2.67;;
817;SDS011;391;51.052;6.954;2022-09-14T13:47:24;2.47;;;1.83;;
817;SDS011;391;51.052;6.954;2022-09-14T13:49:28;7.23;;;3.07;;
817;SDS011;391;51.052;6.954;2022-09-14T13:51:32;2.80;;;2.50;;
817;SDS011;391;51.052;6.954;2022-09-14T13:53:37;2.50;;;2.30;;
817;SDS011;391;51.052;6.954;2022-09-14T13:55:42;9.77;;;2.87;;
817;SDS011;391;51.052;6.954;2022-09-14T13:58:06;2.13;;;1.93;;
817;SDS011;391;51.052;6.954;2022-09-14T14:00:18;3.90;;;3.50;;
817;SDS011;391;51.052;6.954;2022-09-14T14:02:22;3.03;;;2.80;;